PANC Airport Information

Runway Information
Runway 07L Length 10600 ft width 150 ft
Elevation 128 ft Threshold 0 ft Heading 90
Runway 25R Length 10600 ft Width 150 ft
Elevation 92 ft Threshold 0 ft Heading 270
Runway 07R Length 10900 ft width 150 ft
Elevation 130 ft Threshold 0 ft Heading 90
Runway 25L Length 10900 ft Width 150 ft
Elevation 100 ft Threshold 0 ft Heading 270
Runway 14 Length 11584 ft width 150 ft
Elevation 151 ft Threshold 200 ft Heading 165
Runway 32 Length 11584 ft Width 150 ft
Elevation 121 ft Threshold 893 ft Heading 345
Airport Frequencies
Type A/D Name APP/DEP Frequency 119.1 MHZ
Type A/D Name APP/DEP Frequency 123.8 MHZ
Type ATIS Name ATIS Frequency 118.4 MHZ
Type AWOS Name TWEB Frequency 114.3 MHZ
Type CLD Name CLNC DEL Frequency 119.4 MHZ
Type FSS Name KENAI RDO Frequency 122.2 MHZ
Type GND Name GND Frequency 121.9 MHZ
Type MISC Name SAN FRANCI Frequency 1133 MHZ
Type POST Name CAMPER Frequency 140.15 MHZ
Type RFSS Name KENAI RDO Frequency 122.55 MHZ
Type TWR Name TWR Frequency 118.3 MHZ
Type UNIC Name UNICOM Frequency 122.95 MHZ
Airport Navaids
Type NDB Name Orca Bay Frequency 233 KHZ
Type VOR-DME Name Anchorage Frequency 114300 KHZ
Type NDB Name Bruck Frequency 387 KHZ
Type NDB Name Campbell Lake Frequency 338 KHZ
Airport Weather Information & NOTAM
ADDS - METARS form results

(1121 UTC 20 April 2019)
Data provider http://aviationweather.gov/metar/data/
 
METAR text: PANC 201103Z 23012KT 3SM BR FEW006 SCT011 OVC021 01/M01 A2971 RMK AO2 CIG 012 N T00061011 VISNO N $
Conditions at: PANC (ANCHORAGE INTL , AK, US) observed 1103 UTC 20 April 2019
Temperature: 0.6°C (33°F)
Dewpoint: -1.1°C (30°F) [RH = 88%]
Pressure (altimeter): 29.71 inches Hg (1006.2 mb)
Winds: from the SW (230 degrees) at 14 MPH (12 knots; 6.2 m/s)
Visibility: 3 miles ( 5 km)
Ceiling: 2100 feet AGL
Clouds: few clouds at 600 feet AGL
scattered clouds at 1100 feet AGL
overcast cloud deck at 2100 feet AGL
Weather: BR  (mist)
SOME DATA ABOVE MAY BE INACCURATE!!!
"$" is an indication the sensor requires maintenance

METAR text: PANC 201053Z 23012KT 10SM FEW005 BKN009 OVC022 01/M01 A2971 RMK AO2 SNB12E49 SLP063 P0000 T00061011 VISNO N $
Conditions at: PANC (ANCHORAGE INTL , AK, US) observed 1053 UTC 20 April 2019
Temperature: 0.6°C (33°F)
Dewpoint: -1.1°C (30°F) [RH = 88%]
Pressure (altimeter): 29.71 inches Hg (1006.2 mb)
[Sea-level pressure: 1006.3 mb]
Winds: from the SW (230 degrees) at 14 MPH (12 knots; 6.2 m/s)
Visibility: 10 or more miles (16+ km)
Ceiling: 900 feet AGL
Clouds: few clouds at 500 feet AGL
broken clouds at 900 feet AGL
overcast cloud deck at 2200 feet AGL
Weather:
SOME DATA ABOVE MAY BE INACCURATE!!!
"$" is an indication the sensor requires maintenance

METAR text: PANC 201037Z 23010KT 10SM -SN BKN007 OVC021 01/M01 A2972 RMK AO2 SNB12 P0000 T00061011 VISNO N $
Conditions at: PANC (ANCHORAGE INTL , AK, US) observed 1037 UTC 20 April 2019
Temperature: 0.6°C (33°F)
Dewpoint: -1.1°C (30°F) [RH = 88%]
Pressure (altimeter): 29.72 inches Hg (1006.5 mb)
Winds: from the SW (230 degrees) at 12 MPH (10 knots; 5.1 m/s)
Visibility: 10 or more miles (16+ km)
Ceiling: 700 feet AGL
Clouds: broken clouds at 700 feet AGL
overcast cloud deck at 2100 feet AGL
Weather: -SN  (light snow)
SOME DATA ABOVE MAY BE INACCURATE!!!
"$" is an indication the sensor requires maintenance

METAR text: PANC 201025Z 24009KT 4SM -SN BR FEW007 SCT017 OVC023 01/M01 A2971 RMK AO2 SNB12 P0000 T00111006 VISNO N $
Conditions at: PANC (ANCHORAGE INTL , AK, US) observed 1025 UTC 20 April 2019
Temperature: 1.1°C (34°F)
Dewpoint: -0.6°C (31°F) [RH = 88%]
Pressure (altimeter): 29.71 inches Hg (1006.2 mb)
Winds: from the WSW (240 degrees) at 10 MPH (9 knots; 4.6 m/s)
Visibility: 4 miles ( 6 km)
Ceiling: 2300 feet AGL
Clouds: few clouds at 700 feet AGL
scattered clouds at 1700 feet AGL
overcast cloud deck at 2300 feet AGL
Weather: -SN BR  (light snow, mist)
SOME DATA ABOVE MAY BE INACCURATE!!!
"$" is an indication the sensor requires maintenance

Forecast for: PANC (ANCHORAGE INTL , AK, US)
Text: PANC 201039Z 2011/2112 VRB06KT P6SM -SHSN FEW007 SCT027 OVC035
Forecast period: 1100 to 1300 UTC 20 April 2019
Forecast type: FROM: standard forecast or significant change
Winds: variable direction winds at 7 MPH (6 knots; 3.1 m/s)
Visibility: 6 or more miles 10+ km)
Ceiling: 3500 feet AGL
Clouds: few clouds at 700 feet AGL
scattered clouds at 2700 feet AGL
overcast cloud deck at 3500 feet AGL
Weather: -SHSN  (light snow showers)
Text: FM201300 15008G15KT P6SM -SHSN BKN040
Forecast period: 1300 to 1800 UTC 20 April 2019
Forecast type: FROM: standard forecast or significant change
Winds: from the SSE (150 degrees) at 9 MPH (8 knots; 4.1 m/s)
gusting to 17 MPH (15 knots; 7.7 m/s)
Visibility: 6 or more miles 10+ km)
Ceiling: 4000 feet AGL
Clouds: broken clouds at 4000 feet AGL
Weather: -SHSN  (light snow showers)
Text: FM201800 VRB06KT P6SM VCSH BKN060
Forecast period: 1800 UTC 20 April 2019 to 1200 UTC 21 April 2019
Forecast type: FROM: standard forecast or significant change
Winds: variable direction winds at 7 MPH (6 knots; 3.1 m/s)
Visibility: 6 or more miles 10+ km)
Ceiling: 6000 feet AGL
Clouds: broken clouds at 6000 feet AGL
Weather: VCSH  (showers in vicinity)